Time;durP1;ratioP1;P1;durP2;ratioP2;P2;SDS_P1;SDS_P2;PMS_P1;PMS_P2;Temp;Humidity;BMP_temperature;BMP_pressure;BME280_temperature;BME280_humidity;BME280_pressure;Samples;Min_cycle;Max_cycle;Signal;HPM_P1;HPM_P2
2023/08/26 00:00:23;;;;;;;19.90;12.75;;;23.20;64.70;;;;;;5011688;28;20030;-56
2023/08/26 00:02:48;;;;;;;18.42;11.85;;;23.20;64.60;;;;;;5011512;28;20029;-56
2023/08/26 00:05:14;;;;;;;24.50;13.65;;;23.20;64.50;;;;;;5011834;28;20140;-57
2023/08/26 00:07:40;;;;;;;23.77;14.05;;;23.20;64.50;;;;;;5011504;28;20036;-57
2023/08/26 00:10:07;;;;;;;34.83;17.75;;;23.10;64.50;;;;;;5011468;28;20084;-57
2023/08/26 00:12:32;;;;;;;30.65;15.60;;;23.10;64.40;;;;;;5011622;28;20037;-55
2023/08/26 00:14:58;;;;;;;21.58;13.45;;;23.10;64.30;;;;;;5011279;28;20032;-57
2023/08/26 00:17:24;;;;;;;28.83;17.00;;;23.10;64.20;;;;;;5011668;28;20053;-57
2023/08/26 00:19:50;;;;;;;29.85;16.55;;;23.10;64.10;;;;;;5011401;28;20033;-56
2023/08/26 00:22:17;;;;;;;31.52;16.38;;;23.10;64.20;;;;;;5015708;28;20037;-57
2023/08/26 00:24:43;;;;;;;28.35;14.57;;;23.10;64.20;;;;;;5015774;28;20032;-56
2023/08/26 00:27:09;;;;;;;20.40;12.38;;;23.10;64.20;;;;;;5015242;28;20125;-57
2023/08/26 00:29:34;;;;;;;29.55;13.73;;;23.10;64.40;;;;;;5015412;28;20045;-57
2023/08/26 00:32:00;;;;;;;21.00;12.18;;;23.10;64.40;;;;;;5015376;28;20076;-57
2023/08/26 00:34:26;;;;;;;18.45;10.32;;;23.00;64.50;;;;;;5015334;28;20397;-57
2023/08/26 00:36:51;;;;;;;11.07;9.20;;;23.00;64.70;;;;;;5015524;28;20449;-57
2023/08/26 00:39:17;;;;;;;12.40;9.25;;;22.90;64.60;;;;;;5015253;28;20026;-57
2023/08/26 00:41:43;;;;;;;12.07;9.05;;;22.90;64.80;;;;;;5015142;28;20083;-56
2023/08/26 00:44:08;;;;;;;10.55;8.40;;;22.90;64.90;;;;;;5015105;28;20022;-57
2023/08/26 00:46:34;;;;;;;11.05;8.00;;;22.90;65.10;;;;;;5015076;28;20041;-57
2023/08/26 00:49:00;;;;;;;9.50;8.23;;;22.90;65.40;;;;;;5015325;28;20037;-56
2023/08/26 00:51:27;;;;;;;11.88;7.38;;;22.80;65.50;;;;;;5014903;28;20389;-57
2023/08/26 00:53:53;;;;;;;12.27;7.28;;;22.80;65.70;;;;;;5014851;28;20477;-56
2023/08/26 00:56:19;;;;;;;9.25;7.35;;;22.80;65.70;;;;;;5014893;28;20022;-56
2023/08/26 00:58:45;;;;;;;9.13;7.55;;;22.70;65.60;;;;;;5015505;28;20020;-57
2023/08/26 01:01:11;;;;;;;9.95;7.78;;;22.70;65.70;;;;;;5015116;28;20029;-56
2023/08/26 01:03:38;;;;;;;8.65;7.07;;;22.70;65.80;;;;;;5014779;28;20030;-57
2023/08/26 01:06:03;;;;;;;8.38;7.10;;;22.70;65.90;;;;;;5014890;28;20025;-54
2023/08/26 01:08:30;;;;;;;9.15;6.50;;;22.70;66.60;;;;;;5014670;28;20397;-56
2023/08/26 01:11:01;;;;;;;11.63;7.05;;;22.70;66.10;;;;;;5014651;28;20033;-57
2023/08/26 01:13:38;;;;;;;9.65;6.80;;;22.60;66.30;;;;;;5014659;28;20401;-56
2023/08/26 01:16:05;;;;;;;10.20;6.38;;;22.60;66.30;;;;;;5014493;28;20029;-55
2023/08/26 01:18:31;;;;;;;10.98;6.45;;;22.60;66.50;;;;;;5014568;28;20107;-57
2023/08/26 01:20:57;;;;;;;10.15;6.80;;;22.60;66.60;;;;;;5014343;28;20022;-57
2023/08/26 01:23:38;;;;;;;8.68;6.35;;;22.60;66.60;;;;;;5014372;28;20022;-55
2023/08/26 01:26:04;;;;;;;8.93;6.90;;;22.60;66.60;;;;;;5014322;28;20085;-57
2023/08/26 01:28:30;;;;;;;9.38;6.80;;;22.60;66.80;;;;;;5014350;28;20029;-57
2023/08/26 01:31:03;;;;;;;10.40;6.45;;;22.60;66.80;;;;;;5014230;28;20022;-56
2023/08/26 01:33:35;;;;;;;9.25;6.18;;;22.60;66.70;;;;;;5013638;28;20030;-57
2023/08/26 01:36:03;;;;;;;9.43;6.75;;;22.60;66.50;;;;;;5014128;28;20499;-57
2023/08/26 01:38:30;;;;;;;8.63;6.70;;;22.60;66.30;;;;;;5014454;28;20014;-57
2023/08/26 01:40:58;;;;;;;8.82;6.20;;;22.60;66.10;;;;;;5014095;28;20022;-57
2023/08/26 01:43:25;;;;;;;10.60;6.43;;;22.60;65.80;;;;;;5014030;28;20079;-55
2023/08/26 01:45:52;;;;;;;8.63;6.55;;;22.60;65.80;;;;;;5014426;28;20037;-57
2023/08/26 01:48:17;;;;;;;8.77;6.63;;;22.70;65.80;;;;;;5014326;28;20026;-57
2023/08/26 01:50:43;;;;;;;7.90;5.68;;;22.60;65.70;;;;;;5013940;28;20033;-57
2023/08/26 01:53:09;;;;;;;8.52;6.40;;;22.70;65.80;;;;;;5014043;28;20022;-55
2023/08/26 01:55:35;;;;;;;8.23;6.18;;;22.70;65.70;;;;;;5013815;28;20069;-57
2023/08/26 01:58:01;;;;;;;10.13;6.78;;;22.70;65.50;;;;;;5014220;28;20026;-57
2023/08/26 02:00:26;;;;;;;8.90;6.68;;;22.70;65.20;;;;;;5014297;28;20433;-57
2023/08/26 02:02:52;;;;;;;8.98;6.60;;;22.80;65.20;;;;;;5013776;28;20041;-57
2023/08/26 02:05:17;;;;;;;7.70;5.78;;;22.80;65.30;;;;;;5013505;28;20475;-57
2023/08/26 02:07:43;;;;;;;9.38;7.03;;;22.80;65.40;;;;;;5013779;28;20504;-57
2023/08/26 02:10:09;;;;;;;7.95;6.18;;;22.80;65.20;;;;;;5013541;28;20033;-57
2023/08/26 02:12:35;;;;;;;8.50;6.25;;;22.80;65.20;;;;;;5013594;28;20087;-56
2023/08/26 02:15:01;;;;;;;8.38;6.10;;;22.90;65.20;;;;;;5013428;28;20363;-58
2023/08/26 02:17:27;;;;;;;9.55;6.80;;;22.90;65.10;;;;;;5013301;28;20026;-56
2023/08/26 02:19:53;;;;;;;9.73;6.30;;;22.90;64.90;;;;;;5013509;28;20030;-57
2023/08/26 02:22:18;;;;;;;9.68;6.32;;;22.90;64.70;;;;;;5013227;28;20466;-57
2023/08/26 02:24:44;;;;;;;10.10;6.78;;;22.90;64.70;;;;;;5013464;28;20536;-57
2023/08/26 02:27:09;;;;;;;8.45;6.15;;;22.90;64.80;;;;;;5013075;28;20053;-57
2023/08/26 02:29:35;;;;;;;8.40;6.20;;;22.90;64.80;;;;;;5013221;28;20037;-55
2023/08/26 02:32:01;;;;;;;7.55;5.70;;;22.90;64.90;;;;;;5013053;28;20076;-58
2023/08/26 02:34:26;;;;;;;8.95;6.30;;;22.90;65.20;;;;;;5013357;28;20361;-57
2023/08/26 02:36:52;;;;;;;8.80;6.60;;;22.90;65.90;;;;;;5013089;28;20034;-57
2023/08/26 02:39:18;;;;;;;8.95;5.60;;;22.90;65.70;;;;;;5013169;28;20044;-56
2023/08/26 02:41:44;;;;;;;8.90;6.10;;;22.90;66.00;;;;;;5013216;28;20030;-58
2023/08/26 02:44:09;;;;;;;7.55;6.10;;;22.90;65.80;;;;;;5011861;28;20096;-57
2023/08/26 02:46:35;;;;;;;8.68;6.70;;;22.90;65.50;;;;;;5012846;28;20066;-57
2023/08/26 02:49:01;;;;;;;7.57;6.13;;;22.90;65.30;;;;;;5013060;28;20052;-55
2023/08/26 02:51:27;;;;;;;7.90;6.18;;;22.90;65.30;;;;;;5013066;28;20490;-57
2023/08/26 02:53:52;;;;;;;10.25;6.18;;;22.90;65.30;;;;;;5012673;28;20548;-57
2023/08/26 02:56:18;;;;;;;7.15;5.22;;;22.90;65.10;;;;;;5012643;28;20033;-57
2023/08/26 02:58:44;;;;;;;9.00;6.22;;;22.90;64.90;;;;;;5012854;28;20030;-57
2023/08/26 03:01:09;;;;;;;7.97;6.07;;;22.90;64.70;;;;;;5012577;28;20482;-55
2023/08/26 03:03:35;;;;;;;10.70;7.47;;;22.90;64.80;;;;;;5012486;28;20030;-57
2023/08/26 03:06:01;;;;;;;10.27;7.20;;;22.90;64.70;;;;;;5012707;28;20036;-56
2023/08/26 03:08:27;;;;;;;9.93;6.43;;;22.90;64.70;;;;;;5012426;28;20026;-57
2023/08/26 03:11:01;;;;;;;10.70;6.78;;;22.90;64.60;;;;;;5012432;28;20033;-55
2023/08/26 03:13:27;;;;;;;9.40;7.18;;;22.90;64.60;;;;;;5012648;28;20033;-57
2023/08/26 03:15:52;;;;;;;9.90;7.47;;;22.90;64.40;;;;;;5012272;28;20053;-57
2023/08/26 03:18:18;;;;;;;14.73;8.55;;;23.00;64.70;;;;;;5012366;28;20481;-57
2023/08/26 03:20:44;;;;;;;13.00;8.07;;;23.00;64.60;;;;;;5012176;28;20072;-57
2023/08/26 03:23:09;;;;;;;22.95;12.05;;;23.00;64.60;;;;;;5012197;28;20025;-57
2023/08/26 03:25:40;;;;;;;19.67;11.13;;;23.00;64.60;;;;;;5012153;28;20029;-57
2023/08/26 03:28:08;;;;;;;33.42;16.70;;;23.00;64.40;;;;;;5012752;28;20073;-57
2023/08/26 03:30:35;;;;;;;37.88;17.83;;;23.00;64.40;;;;;;5012382;28;20113;-56
2023/08/26 03:33:01;;;;;;;32.00;17.92;;;23.00;64.40;;;;;;5012008;28;20084;-57
2023/08/26 03:35:26;;;;;;;23.55;12.77;;;23.10;64.50;;;;;;5011986;28;20026;-57
2023/08/26 03:37:52;;;;;;;18.58;12.43;;;23.10;64.40;;;;;;5012342;28;20054;-55
2023/08/26 03:40:22;;;;;;;24.80;13.85;;;23.10;64.20;;;;;;5011984;28;20033;-57
2023/08/26 03:42:51;;;;;;;26.88;14.38;;;23.10;64.20;;;;;;5012442;28;20037;-57
2023/08/26 03:45:17;;;;;;;31.52;17.48;;;23.00;64.10;;;;;;5012152;28;20117;-56
2023/08/26 03:47:42;;;;;;;29.73;16.20;;;23.10;64.00;;;;;;5012184;28;20177;-57
2023/08/26 03:50:08;;;;;;;18.95;11.55;;;23.10;64.20;;;;;;5012187;28;20026;-56
2023/08/26 03:52:34;;;;;;;10.18;7.97;;;23.10;64.20;;;;;;5011873;28;20026;-56
2023/08/26 03:55:00;;;;;;;11.70;8.60;;;23.10;64.20;;;;;;5011337;28;20080;-57
2023/08/26 03:57:25;;;;;;;20.02;11.82;;;23.10;64.30;;;;;;5011642;28;20473;-56
2023/08/26 03:59:51;;;;;;;16.95;9.82;;;23.10;64.10;;;;;;5011996;28;20022;-57
2023/08/26 04:02:17;;;;;;;26.50;13.73;;;23.10;64.20;;;;;;5011597;28;20497;-56
2023/08/26 04:04:42;;;;;;;25.15;13.93;;;23.10;64.00;;;;;;5011639;28;20060;-57
2023/08/26 04:07:08;;;;;;;21.77;11.02;;;23.10;64.00;;;;;;5011699;28;20117;-55
2023/08/26 04:09:35;;;;;;;21.27;12.07;;;23.10;64.00;;;;;;5011438;28;20018;-57
2023/08/26 04:12:00;;;;;;;15.50;10.10;;;23.20;63.80;;;;;;5011545;28;20013;-57
2023/08/26 04:14:26;;;;;;;13.70;9.60;;;23.20;63.80;;;;;;5012125;28;20425;-54
2023/08/26 04:16:52;;;;;;;14.93;9.88;;;23.20;63.80;;;;;;5011099;28;20045;-55
2023/08/26 04:19:17;;;;;;;22.75;12.40;;;23.20;63.70;;;;;;5011697;28;20398;-57
2023/08/26 04:21:43;;;;;;;21.45;12.18;;;23.20;63.60;;;;;;5011271;28;20034;-56
2023/08/26 04:24:08;;;;;;;18.83;12.05;;;23.20;63.50;;;;;;5011647;28;20029;-57
2023/08/26 04:26:34;;;;;;;25.20;13.15;;;23.20;63.40;;;;;;5011320;28;20140;-55
2023/08/26 04:29:00;;;;;;;28.13;12.95;;;23.20;63.30;;;;;;5011294;28;20036;-55
2023/08/26 04:31:25;;;;;;;22.20;12.05;;;23.20;63.30;;;;;;5011366;28;20032;-54
2023/08/26 04:33:52;;;;;;;20.67;12.13;;;23.20;63.20;;;;;;5011784;28;20251;-56
2023/08/26 04:36:18;;;;;;;18.80;11.57;;;23.30;63.10;;;;;;5011368;28;20393;-57
2023/08/26 04:38:45;;;;;;;20.10;10.40;;;23.30;63.10;;;;;;5011275;28;20023;-56
2023/08/26 04:41:11;;;;;;;16.02;9.80;;;23.30;63.00;;;;;;5011433;28;20050;-56
2023/08/26 04:43:36;;;;;;;15.00;9.40;;;23.30;63.10;;;;;;5011358;28;20449;-57
2023/08/26 04:46:03;;;;;;;14.27;9.00;;;23.40;63.10;;;;;;5011758;28;20117;-56
2023/08/26 04:48:28;;;;;;;13.77;8.20;;;23.40;62.90;;;;;;5011047;28;20485;-55
2023/08/26 04:50:55;;;;;;;15.10;8.93;;;23.50;63.00;;;;;;5011130;28;20084;-57
2023/08/26 04:53:20;;;;;;;13.15;8.35;;;23.50;63.00;;;;;;5009299;28;20028;-54
2023/08/26 04:55:51;;;;;;;13.27;8.57;;;23.60;62.80;;;;;;5009409;28;20444;-57
2023/08/26 04:58:17;;;;;;;14.80;8.73;;;23.70;62.80;;;;;;5009605;28;20061;-56
2023/08/26 05:00:43;;;;;;;11.93;6.63;;;23.70;62.60;;;;;;5009286;28;20508;-56
2023/08/26 05:03:09;;;;;;;10.77;7.65;;;23.70;63.10;;;;;;5009629;28;20010;-57
2023/08/26 05:05:35;;;;;;;10.75;6.47;;;23.80;62.50;;;;;;5010045;28;20076;-55
2023/08/26 05:08:01;;;;;;;13.45;7.18;;;23.90;62.10;;;;;;5011716;28;20033;-57
2023/08/26 05:10:26;;;;;;;8.32;6.28;;;23.90;61.90;;;;;;5014061;28;20029;-56
2023/08/26 05:12:52;;;;;;;8.95;6.20;;;23.90;61.70;;;;;;5013955;28;20473;-57
2023/08/26 05:15:18;;;;;;;9.25;6.18;;;23.90;61.60;;;;;;5013804;28;20026;-57
2023/08/26 05:17:43;;;;;;;7.38;5.78;;;24.00;61.70;;;;;;5014300;28;20033;-57
2023/08/26 05:20:10;;;;;;;7.40;5.80;;;24.00;61.60;;;;;;5014332;28;20049;-57
2023/08/26 05:22:35;;;;;;;6.72;5.55;;;24.00;61.50;;;;;;5014774;28;20029;-56
2023/08/26 05:25:01;;;;;;;9.88;6.53;;;24.00;61.30;;;;;;5014488;28;20029;-56
2023/08/26 05:27:27;;;;;;;9.90;7.15;;;24.10;61.40;;;;;;5014401;28;20050;-56
2023/08/26 05:29:53;;;;;;;10.90;6.57;;;24.10;61.30;;;;;;5014741;28;20033;-56
2023/08/26 05:32:19;;;;;;;10.13;5.80;;;24.10;61.20;;;;;;5014557;28;20029;-56
2023/08/26 05:34:45;;;;;;;8.40;6.40;;;24.10;61.00;;;;;;5014099;28;20477;-57
2023/08/26 05:37:10;;;;;;;10.38;6.20;;;24.10;61.00;;;;;;5014119;28;20030;-56
2023/08/26 05:39:36;;;;;;;9.32;6.00;;;24.20;60.90;;;;;;5014107;28;20030;-56
2023/08/26 05:42:02;;;;;;;6.97;5.50;;;24.20;61.00;;;;;;5014101;28;20389;-57
2023/08/26 05:44:27;;;;;;;7.03;5.57;;;24.20;61.00;;;;;;5014070;28;20030;-57
2023/08/26 05:46:54;;;;;;;8.00;6.05;;;24.30;60.90;;;;;;5014147;28;20036;-56
2023/08/26 05:49:20;;;;;;;8.52;6.53;;;24.30;60.70;;;;;;5014288;28;20092;-56
2023/08/26 05:51:45;;;;;;;8.88;6.32;;;24.30;60.70;;;;;;5014277;28;20025;-56
2023/08/26 05:54:11;;;;;;;9.07;6.60;;;24.40;60.70;;;;;;5013980;28;20099;-56
2023/08/26 05:56:37;;;;;;;7.88;6.38;;;24.50;61.50;;;;;;5013761;28;20473;-56
2023/08/26 05:59:02;;;;;;;8.13;6.70;;;24.60;60.80;;;;;;5013761;28;20026;-57
2023/08/26 06:01:28;;;;;;;10.18;7.35;;;24.70;60.50;;;;;;5013977;28;20060;-57
2023/08/26 06:03:55;;;;;;;12.85;6.90;;;24.70;60.30;;;;;;5013676;28;20030;-57
2023/08/26 06:06:20;;;;;;;10.90;6.65;;;24.70;60.20;;;;;;5013751;28;20026;-57
2023/08/26 06:08:46;;;;;;;11.32;6.78;;;24.80;60.30;;;;;;5013919;28;20029;-57
2023/08/26 06:11:12;;;;;;;7.68;6.05;;;24.80;60.50;;;;;;5013670;28;20037;-57
2023/08/26 06:13:37;;;;;;;9.95;6.03;;;24.80;60.50;;;;;;5013619;28;20537;-57
2023/08/26 06:16:03;;;;;;;10.25;5.95;;;24.80;60.50;;;;;;5013695;28;20040;-57
2023/08/26 06:18:29;;;;;;;9.20;5.63;;;24.80;60.50;;;;;;5013253;28;20105;-56
2023/08/26 06:20:54;;;;;;;7.45;5.53;;;24.80;60.40;;;;;;5013406;28;20037;-57
2023/08/26 06:23:20;;;;;;;9.00;5.40;;;24.70;60.60;;;;;;5013288;28;20108;-55
2023/08/26 06:26:04;;;;;;;7.00;5.45;;;24.70;60.60;;;;;;5013159;28;20470;-57
2023/08/26 06:28:30;;;;;;;6.55;5.25;;;24.80;60.70;;;;;;5013507;28;20504;-56
2023/08/26 06:31:03;;;;;;;7.78;5.35;;;24.70;60.50;;;;;;5013540;28;20033;-57
2023/08/26 06:33:29;;;;;;;8.40;5.18;;;24.80;60.30;;;;;;5013210;28;20049;-55
2023/08/26 06:35:54;;;;;;;7.03;5.40;;;24.80;60.40;;;;;;5013361;28;20034;-56
2023/08/26 06:38:20;;;;;;;6.60;5.13;;;24.90;60.10;;;;;;5013035;28;20080;-57
2023/08/26 06:40:58;;;;;;;7.22;4.82;;;24.90;60.10;;;;;;5013001;28;20030;-57
2023/08/26 06:43:24;;;;;;;6.45;4.35;;;25.00;60.00;;;;;;5012504;28;20021;-56
2023/08/26 06:45:50;;;;;;;6.05;4.50;;;25.00;59.90;;;;;;5011877;28;20038;-56
2023/08/26 06:48:16;;;;;;;10.43;4.30;;;25.10;59.90;;;;;;5011325;28;20076;-57
2023/08/26 06:50:46;;;;;;;7.90;4.45;;;25.10;59.70;;;;;;5010853;28;20045;-57
2023/08/26 06:53:12;;;;;;;6.22;4.53;;;25.20;59.80;;;;;;5011273;28;20034;-57
2023/08/26 06:55:37;;;;;;;8.30;4.50;;;25.20;59.70;;;;;;5011995;28;20080;-57
2023/08/26 06:58:03;;;;;;;6.38;4.95;;;25.20;59.30;;;;;;5008931;28;20080;-56
2023/08/26 07:00:29;;;;;;;7.88;4.20;;;25.20;59.20;;;;;;5012385;28;20018;-57
2023/08/26 07:02:54;;;;;;;6.68;4.75;;;25.30;59.20;;;;;;5011912;28;20421;-57
2023/08/26 07:05:20;;;;;;;6.30;4.65;;;25.30;59.30;;;;;;5011478;28;20034;-57
2023/08/26 07:07:46;;;;;;;6.43;4.65;;;25.30;59.10;;;;;;5012036;28;20022;-57
2023/08/26 07:10:11;;;;;;;5.55;4.45;;;25.30;59.00;;;;;;5010615;28;20084;-56
2023/08/26 07:12:37;;;;;;;6.18;5.05;;;25.40;59.30;;;;;;5009345;28;20485;-56
2023/08/26 07:15:03;;;;;;;10.88;4.72;;;25.40;59.10;;;;;;5009702;28;20033;-56
2023/08/26 07:17:29;;;;;;;7.35;4.85;;;25.40;59.00;;;;;;5010569;28;20169;-57
2023/08/26 07:19:54;;;;;;;6.10;4.78;;;25.40;59.00;;;;;;5011117;28;20029;-57
2023/08/26 07:22:20;;;;;;;7.97;4.60;;;25.40;59.10;;;;;;5011515;28;20029;-57
2023/08/26 07:24:45;;;;;;;7.03;5.32;;;25.50;58.80;;;;;;5011716;28;20030;-57
2023/08/26 07:27:11;;;;;;;6.80;4.53;;;25.50;58.60;;;;;;5012118;28;20060;-57
2023/08/26 07:29:38;;;;;;;8.02;5.22;;;25.50;58.80;;;;;;5012227;28;20469;-57
2023/08/26 07:32:04;;;;;;;7.97;5.05;;;25.60;58.80;;;;;;5011831;28;20109;-55
2023/08/26 07:34:30;;;;;;;8.77;5.60;;;25.60;58.80;;;;;;5012290;28;20502;-57
2023/08/26 07:36:57;;;;;;;8.02;5.90;;;25.70;58.90;;;;;;5010714;28;20040;-56
2023/08/26 07:39:24;;;;;;;9.02;6.93;;;25.80;58.80;;;;;;5012187;28;20013;-57
2023/08/26 07:41:50;;;;;;;12.57;9.77;;;25.90;58.80;;;;;;5012341;28;20026;-56
2023/08/26 07:44:16;;;;;;;15.07;13.02;;;25.90;58.50;;;;;;5012257;28;20030;-56
2023/08/26 07:46:41;;;;;;;19.80;15.65;;;26.00;58.50;;;;;;5011984;28;20113;-55
2023/08/26 07:49:07;;;;;;;17.65;14.45;;;26.10;58.30;;;;;;5011851;28;20040;-56
2023/08/26 07:51:32;;;;;;;13.00;8.75;;;26.10;58.20;;;;;;5011482;28;20106;-57
2023/08/26 07:53:58;;;;;;;9.30;6.90;;;26.20;58.30;;;;;;5010168;28;20080;-56
2023/08/26 07:56:24;;;;;;;10.50;6.90;;;26.20;58.20;;;;;;5011324;28;20124;-57
2023/08/26 07:58:50;;;;;;;10.13;7.18;;;26.20;57.80;;;;;;4993733;28;20030;-57
2023/08/26 08:01:16;;;;;;;9.25;6.32;;;26.30;57.90;;;;;;5010054;28;20036;-55
2023/08/26 08:03:42;;;;;;;12.75;6.75;;;26.30;57.50;;;;;;5008786;28;20097;-57
2023/08/26 08:06:07;;;;;;;8.82;6.60;;;26.30;57.40;;;;;;5009296;28;20026;-54
2023/08/26 08:08:33;;;;;;;9.48;6.55;;;26.30;57.30;;;;;;5010260;28;20033;-58
2023/08/26 08:10:59;;;;;;;10.73;6.93;;;26.30;57.10;;;;;;5010451;28;20370;-57
2023/08/26 08:13:24;;;;;;;12.75;6.53;;;26.30;57.40;;;;;;5010776;28;20061;-56
2023/08/26 08:15:50;;;;;;;9.90;6.68;;;26.30;57.40;;;;;;5009704;28;20026;-56
2023/08/26 08:18:15;;;;;;;10.00;6.60;;;26.30;57.50;;;;;;5009477;28;20072;-57
2023/08/26 08:20:41;;;;;;;8.15;5.88;;;26.40;57.40;;;;;;5009594;28;20037;-57
2023/08/26 08:23:07;;;;;;;9.00;5.68;;;26.50;57.30;;;;;;5009673;28;20091;-56
2023/08/26 08:25:32;;;;;;;8.15;4.93;;;26.50;57.40;;;;;;5010006;28;20022;-56
2023/08/26 08:28:00;;;;;;;12.35;6.25;;;26.50;57.30;;;;;;5009872;28;20045;-55
2023/08/26 08:30:25;;;;;;;9.45;6.15;;;26.60;57.30;;;;;;5010200;28;20030;-57
2023/08/26 08:32:51;;;;;;;11.82;6.25;;;26.70;57.30;;;;;;5011215;28;20044;-56
2023/08/26 08:35:17;;;;;;;11.68;6.43;;;26.70;57.10;;;;;;5011581;28;20026;-57
2023/08/26 08:37:42;;;;;;;12.25;6.50;;;26.80;57.00;;;;;;5011238;28;20030;-57
2023/08/26 08:40:09;;;;;;;13.63;6.80;;;26.80;56.90;;;;;;5011398;28;20029;-57
2023/08/26 08:42:36;;;;;;;12.63;6.15;;;26.90;57.30;;;;;;5012683;28;20053;-57
2023/08/26 08:45:05;;;;;;;9.07;6.68;;;26.90;57.40;;;;;;5015102;28;20030;-55
2023/08/26 08:47:31;;;;;;;12.85;6.55;;;26.90;57.40;;;;;;5015243;28;20018;-57
2023/08/26 08:49:57;;;;;;;11.43;6.35;;;26.90;58.80;;;;;;5013781;28;20390;-56
2023/08/26 08:52:25;;;;;;;7.10;5.55;;;26.90;58.90;;;;;;5015040;28;20014;-57
2023/08/26 08:54:51;;;;;;;7.60;5.50;;;26.90;59.90;;;;;;5014819;28;20026;-56
2023/08/26 08:57:23;;;;;;;9.50;5.82;;;27.00;61.10;;;;;;5015020;28;20036;-57
2023/08/26 08:59:49;;;;;;;8.18;5.75;;;27.00;61.80;;;;;;5015335;28;20026;-57
2023/08/26 09:02:15;;;;;;;8.30;6.07;;;27.00;62.30;;;;;;5014806;28;20108;-57
2023/08/26 09:04:44;;;;;;;10.48;6.30;;;27.00;62.30;;;;;;5015007;28;20111;-57
2023/08/26 09:07:13;;;;;;;8.68;7.28;;;27.00;62.00;;;;;;5014887;28;20473;-57
2023/08/26 09:09:38;;;;;;;9.77;6.25;;;27.00;62.10;;;;;;5014770;28;20029;-57
2023/08/26 09:12:05;;;;;;;7.15;5.43;;;27.00;62.10;;;;;;5014657;28;20030;-56
2023/08/26 09:14:31;;;;;;;8.95;6.30;;;27.00;62.00;;;;;;5014940;28;20611;-57
2023/08/26 09:17:00;;;;;;;7.65;5.93;;;27.00;61.60;;;;;;5014488;28;20083;-57
2023/08/26 09:19:26;;;;;;;7.15;5.85;;;27.00;61.40;;;;;;5014807;28;20026;-56
2023/08/26 09:21:53;;;;;;;7.07;6.03;;;27.00;61.40;;;;;;5014581;28;20505;-57
2023/08/26 09:24:21;;;;;;;7.57;6.15;;;27.00;61.60;;;;;;5014776;28;20022;-57
2023/08/26 09:26:59;;;;;;;8.05;6.18;;;27.00;61.50;;;;;;5014290;28;20045;-57
2023/08/26 09:29:25;;;;;;;10.25;7.05;;;27.00;61.90;;;;;;5014594;28;20034;-57
2023/08/26 09:31:56;;;;;;;8.32;6.32;;;27.00;61.90;;;;;;5014571;28;20033;-58
2023/08/26 09:34:26;;;;;;;7.40;5.97;;;27.00;62.10;;;;;;5013836;28;20120;-56
2023/08/26 09:36:52;;;;;;;8.52;6.30;;;26.90;62.10;;;;;;5014207;28;20034;-57
2023/08/26 09:39:18;;;;;;;11.50;5.63;;;26.90;62.50;;;;;;5013464;28;20029;-55
2023/08/26 09:41:45;;;;;;;6.43;5.47;;;26.90;63.00;;;;;;5013636;28;20036;-56
2023/08/26 09:44:11;;;;;;;8.02;5.43;;;26.90;63.30;;;;;;5014038;28;20106;-55
2023/08/26 09:46:39;;;;;;;8.48;5.78;;;26.90;63.80;;;;;;5014092;28;20062;-56
2023/08/26 09:49:14;;;;;;;7.07;5.28;;;26.80;63.40;;;;;;5014204;28;20034;-57
2023/08/26 09:51:47;;;;;;;8.88;6.05;;;26.80;63.80;;;;;;5013968;28;20037;-57
2023/08/26 09:54:18;;;;;;;13.48;6.20;;;26.70;64.00;;;;;;5012443;28;20536;-56
2023/08/26 09:56:45;;;;;;;8.95;5.80;;;26.70;63.50;;;;;;5012051;28;20030;-55
2023/08/26 09:59:11;;;;;;;7.70;5.15;;;26.60;64.10;;;;;;5011950;28;20022;-56
2023/08/26 10:01:38;;;;;;;8.65;5.32;;;26.60;64.40;;;;;;5012217;28;20041;-57
2023/08/26 10:04:04;;;;;;;8.85;5.55;;;26.60;64.20;;;;;;5012087;28;20029;-56
2023/08/26 10:06:33;;;;;;;7.18;5.07;;;26.50;63.90;;;;;;5012058;28;20021;-57
2023/08/26 10:09:22;;;;;;;7.93;5.22;;;26.50;64.20;;;;;;5012374;28;20025;-55
2023/08/26 10:11:51;;;;;;;7.07;5.35;;;26.50;63.30;;;;;;5004216;28;20042;-57
2023/08/26 10:14:18;;;;;;;10.48;5.85;;;26.50;63.90;;;;;;5010560;28;20022;-55
2023/08/26 10:16:45;;;;;;;7.70;5.03;;;26.50;65.40;;;;;;5010234;28;20485;-56
2023/08/26 10:19:13;;;;;;;7.93;5.22;;;26.40;66.30;;;;;;5012029;28;20014;-55
2023/08/26 10:21:39;;;;;;;6.55;5.25;;;26.40;66.10;;;;;;5012584;28;20030;-56
2023/08/26 10:24:05;;;;;;;7.93;5.03;;;26.40;66.90;;;;;;5012676;28;20417;-55
2023/08/26 10:26:31;;;;;;;7.05;4.75;;;26.30;67.20;;;;;;5012863;28;20082;-57
2023/08/26 10:28:58;;;;;;;6.35;5.20;;;26.30;67.80;;;;;;5012776;28;20393;-55
2023/08/26 10:31:36;;;;;;;6.97;5.40;;;26.30;68.20;;;;;;5012040;28;20084;-55
2023/08/26 10:34:08;;;;;;;7.47;5.20;;;26.30;68.50;;;;;;5012531;28;20030;-55
2023/08/26 10:36:35;;;;;;;7.75;5.35;;;26.30;69.00;;;;;;5012223;28;20100;-55
2023/08/26 10:39:01;;;;;;;8.27;5.30;;;26.30;69.60;;;;;;5011390;28;20471;-56
2023/08/26 10:41:26;;;;;;;7.30;5.47;;;26.30;69.40;;;;;;5010860;28;20365;-55
2023/08/26 10:43:53;;;;;;;7.82;6.10;;;26.30;69.30;;;;;;5011666;28;20069;-55
2023/08/26 10:46:34;;;;;;;6.75;5.22;;;26.30;69.10;;;;;;5012648;28;20030;-55
2023/08/26 10:49:01;;;;;;;8.50;5.85;;;26.30;69.20;;;;;;5012007;28;20037;-56
2023/08/26 10:51:28;;;;;;;7.55;5.75;;;26.30;70.20;;;;;;5012219;28;20053;-57
2023/08/26 10:54:02;;;;;;;6.82;5.50;;;26.40;70.50;;;;;;5011514;28;20029;-56
2023/08/26 10:56:28;;;;;;;9.38;5.60;;;26.40;70.40;;;;;;5010223;28;20033;-57
2023/08/26 10:59:03;;;;;;;11.60;6.00;;;26.40;70.60;;;;;;5011610;28;20026;-55
2023/08/26 11:01:35;;;;;;;8.93;5.68;;;26.40;70.10;;;;;;5010339;28;20362;-54
2023/08/26 11:04:05;;;;;;;7.78;6.18;;;26.40;70.00;;;;;;5011921;28;20091;-57
2023/08/26 11:06:38;;;;;;;7.82;6.20;;;26.40;70.10;;;;;;5011669;28;20026;-57
2023/08/26 11:09:04;;;;;;;9.25;6.38;;;26.40;70.70;;;;;;5012681;28;20026;-58
2023/08/26 11:11:31;;;;;;;9.77;6.32;;;26.40;71.40;;;;;;5012445;28;20039;-56
2023/08/26 11:13:56;;;;;;;10.10;6.43;;;26.50;71.30;;;;;;5012739;28;20151;-57
2023/08/26 11:16:22;;;;;;;12.25;7.07;;;26.50;71.30;;;;;;5011890;28;20030;-56
2023/08/26 11:18:52;;;;;;;10.00;6.25;;;26.50;72.00;;;;;;5012484;28;20079;-57
2023/08/26 11:21:18;;;;;;;7.30;6.47;;;26.50;71.30;;;;;;5012575;28;20030;-57
2023/08/26 11:23:47;;;;;;;8.25;6.40;;;26.50;70.90;;;;;;5011947;28;20084;-57
2023/08/26 11:26:18;;;;;;;10.52;6.72;;;26.60;71.60;;;;;;5011728;28;20052;-56
2023/08/26 11:28:46;;;;;;;9.10;6.53;;;26.60;71.10;;;;;;5012194;28;20029;-58
2023/08/26 11:31:11;;;;;;;8.30;6.88;;;26.60;70.90;;;;;;5012056;28;20049;-57
2023/08/26 11:33:37;;;;;;;8.00;6.30;;;26.60;70.80;;;;;;5012096;28;20034;-57
2023/08/26 11:36:03;;;;;;;7.85;6.35;;;26.60;70.70;;;;;;5011896;28;20041;-57
2023/08/26 11:38:36;;;;;;;9.30;6.50;;;26.60;70.80;;;;;;5012035;28;20040;-57
2023/08/26 11:41:05;;;;;;;8.05;6.22;;;26.60;71.60;;;;;;5012048;28;20029;-57
2023/08/26 11:43:31;;;;;;;12.52;6.95;;;26.60;70.70;;;;;;5011866;28;20037;-56
2023/08/26 11:45:57;;;;;;;7.18;6.03;;;26.60;70.60;;;;;;5011934;28;20029;-57
2023/08/26 11:48:24;;;;;;;9.98;7.20;;;26.60;70.60;;;;;;5011835;28;20041;-56
2023/08/26 11:50:51;;;;;;;12.23;6.63;;;26.60;71.20;;;;;;5011851;28;20092;-58
2023/08/26 11:53:24;;;;;;;8.50;6.25;;;26.60;69.30;;;;;;5011732;28;20100;-57
2023/08/26 11:55:49;;;;;;;9.43;5.72;;;26.60;68.50;;;;;;5011515;28;20569;-57
2023/08/26 11:58:15;;;;;;;7.00;5.78;;;26.60;67.80;;;;;;5010625;28;20056;-57
2023/08/26 12:00:42;;;;;;;8.15;5.78;;;26.70;68.10;;;;;;5011585;28;20030;-55
2023/08/26 12:03:08;;;;;;;16.23;6.47;;;26.70;67.30;;;;;;5011589;28;20022;-57
2023/08/26 12:05:43;;;;;;;10.73;6.35;;;26.80;68.40;;;;;;5011675;28;20026;-57
2023/08/26 12:08:16;;;;;;;7.40;6.22;;;26.80;67.90;;;;;;5011725;28;20026;-57
2023/08/26 12:10:49;;;;;;;9.18;6.03;;;26.80;69.00;;;;;;5012100;28;20112;-57
2023/08/26 12:13:15;;;;;;;8.55;6.25;;;26.80;68.10;;;;;;5011573;28;20117;-57
2023/08/26 12:15:41;;;;;;;9.23;6.18;;;26.90;68.30;;;;;;5011516;28;20613;-57
2023/08/26 12:18:09;;;;;;;7.05;6.05;;;26.90;67.10;;;;;;5011657;28;20057;-56
2023/08/26 12:20:35;;;;;;;9.00;5.63;;;26.90;66.80;;;;;;5011634;28;20050;-57
2023/08/26 12:23:04;;;;;;;8.63;6.28;;;26.90;66.60;;;;;;5011510;28;20102;-57
2023/08/26 12:25:38;;;;;;;8.80;5.57;;;26.90;66.10;;;;;;5011484;28;20025;-56
2023/08/26 12:28:08;;;;;;;7.53;5.43;;;27.00;66.30;;;;;;5011679;28;20042;-57
2023/08/26 12:30:37;;;;;;;7.35;5.53;;;27.00;66.40;;;;;;5011518;28;20022;-58
2023/08/26 12:33:06;;;;;;;6.07;5.35;;;27.00;66.90;;;;;;5011503;28;20069;-56
2023/08/26 12:35:36;;;;;;;7.63;5.30;;;26.90;65.60;;;;;;5011178;28;20049;-55
2023/08/26 12:38:02;;;;;;;7.85;5.85;;;26.90;66.00;;;;;;5011556;28;20363;-57